sensor_id;sensor_type;location;lat;lon;timestamp;pressure;altitude;pressure_sealevel;temperature
15144;BMP180;7672;50.834;6.286;2023-01-28T00:01:11;100818.19;;;6.84
15144;BMP180;7672;50.834;6.286;2023-01-28T00:03:39;100810.66;;;6.84
15144;BMP180;7672;50.834;6.286;2023-01-28T00:06:14;100817.38;;;6.85
15144;BMP180;7672;50.834;6.286;2023-01-28T00:08:41;100817.38;;;6.85
15144;BMP180;7672;50.834;6.286;2023-01-28T00:11:12;100816.56;;;6.86
15144;BMP180;7672;50.834;6.286;2023-01-28T00:13:39;100815.81;;;6.88
15144;BMP180;7672;50.834;6.286;2023-01-28T00:16:08;100817.53;;;6.89
15144;BMP180;7672;50.834;6.286;2023-01-28T00:18:36;100816.75;;;6.90
15144;BMP180;7672;50.834;6.286;2023-01-28T00:21:11;100822.63;;;6.91
15144;BMP180;7672;50.834;6.286;2023-01-28T00:23:40;100818.31;;;6.88
15144;BMP180;7672;50.834;6.286;2023-01-28T00:26:14;100818.31;;;6.88
15144;BMP180;7672;50.834;6.286;2023-01-28T00:28:41;100811.53;;;6.86
15144;BMP180;7672;50.834;6.286;2023-01-28T00:31:18;100809.75;;;6.83
15144;BMP180;7672;50.834;6.286;2023-01-28T00:33:47;100808.09;;;6.82
15144;BMP180;7672;50.834;6.286;2023-01-28T00:36:16;100813.09;;;6.82
15144;BMP180;7672;50.834;6.286;2023-01-28T00:38:48;100810.53;;;6.81
15144;BMP180;7672;50.834;6.286;2023-01-28T00:41:18;100808.81;;;6.80
15144;BMP180;7672;50.834;6.286;2023-01-28T00:43:48;100810.47;;;6.79
15144;BMP180;7672;50.834;6.286;2023-01-28T00:46:16;100809.56;;;6.77
15144;BMP180;7672;50.834;6.286;2023-01-28T00:48:44;100799.53;;;6.77
15144;BMP180;7672;50.834;6.286;2023-01-28T00:51:14;100807.84;;;6.76
15144;BMP180;7672;50.834;6.286;2023-01-28T00:53:43;100810.31;;;6.75
15144;BMP180;7672;50.834;6.286;2023-01-28T00:56:14;100808.66;;;6.75
15144;BMP180;7672;50.834;6.286;2023-01-28T00:58:42;100804.38;;;6.73
15144;BMP180;7672;50.834;6.286;2023-01-28T01:01:19;100798.44;;;6.71
15144;BMP180;7672;50.834;6.286;2023-01-28T01:03:47;100797.53;;;6.69
15144;BMP180;7672;50.834;6.286;2023-01-28T01:06:24;100800.78;;;6.67
15144;BMP180;7672;50.834;6.286;2023-01-28T01:08:50;100797.41;;;6.66
15144;BMP180;7672;50.834;6.286;2023-01-28T01:11:17;100792.44;;;6.68
15144;BMP180;7672;50.834;6.286;2023-01-28T01:13:56;100795.84;;;6.70
15144;BMP180;7672;50.834;6.286;2023-01-28T01:16:30;100801.69;;;6.69
15144;BMP180;7672;50.834;6.286;2023-01-28T01:18:59;100799.25;;;6.70
15144;BMP180;7672;50.834;6.286;2023-01-28T01:21:28;100801.69;;;6.69
15144;BMP180;7672;50.834;6.286;2023-01-28T01:23:55;100813.53;;;6.71
15144;BMP180;7672;50.834;6.286;2023-01-28T01:26:23;100811.84;;;6.72
15144;BMP180;7672;50.834;6.286;2023-01-28T01:28:51;100816.09;;;6.73
15144;BMP180;7672;50.834;6.286;2023-01-28T01:31:20;100816.88;;;6.72
15144;BMP180;7672;50.834;6.286;2023-01-28T01:33:49;100814.41;;;6.73
15144;BMP180;7672;50.834;6.286;2023-01-28T01:36:18;100809.34;;;6.72
15144;BMP180;7672;50.834;6.286;2023-01-28T01:38:47;100814.41;;;6.73
15144;BMP180;7672;50.834;6.286;2023-01-28T01:41:31;100805.97;;;6.71
15144;BMP180;7672;50.834;6.286;2023-01-28T01:44:04;100810.91;;;6.70
15144;BMP180;7672;50.834;6.286;2023-01-28T01:46:48;100811.69;;;6.67
15144;BMP180;7672;50.834;6.286;2023-01-28T01:49:27;100821.66;;;6.66
15144;BMP180;7672;50.834;6.286;2023-01-28T01:52:02;100817.47;;;6.65
15144;BMP180;7672;50.834;6.286;2023-01-28T01:54:34;100818.31;;;6.65
15144;BMP180;7672;50.834;6.286;2023-01-28T01:57:06;100813.34;;;6.67
15144;BMP180;7672;50.834;6.286;2023-01-28T01:59:36;100813.44;;;6.70
15144;BMP180;7672;50.834;6.286;2023-01-28T02:02:06;100816.88;;;6.72
15144;BMP180;7672;50.834;6.286;2023-01-28T02:04:40;100817.81;;;6.74
15144;BMP180;7672;50.834;6.286;2023-01-28T02:07:10;100822.09;;;6.76
15144;BMP180;7672;50.834;6.286;2023-01-28T02:09:38;100812.88;;;6.76
15144;BMP180;7672;50.834;6.286;2023-01-28T02:12:14;100818.88;;;6.80
15144;BMP180;7672;50.834;6.286;2023-01-28T02:14:51;100823.03;;;6.79
15144;BMP180;7672;50.834;6.286;2023-01-28T02:17:19;100825.63;;;6.81
15144;BMP180;7672;50.834;6.286;2023-01-28T02:20:11;100824.78;;;6.82
15144;BMP180;7672;50.834;6.286;2023-01-28T02:23:26;100819.72;;;6.80
15144;BMP180;7672;50.834;6.286;2023-01-28T02:29:34;100822.81;;;6.74
15144;BMP180;7672;50.834;6.286;2023-01-28T02:32:19;100822.69;;;6.71
15144;BMP180;7672;50.834;6.286;2023-01-28T02:34:58;100823.56;;;6.71
15144;BMP180;7672;50.834;6.286;2023-01-28T02:40:24;100819.28;;;6.69
15144;BMP180;7672;50.834;6.286;2023-01-28T02:42:56;100824.38;;;6.70
15144;BMP180;7672;50.834;6.286;2023-01-28T02:45:31;100824.41;;;6.72
15144;BMP180;7672;50.834;6.286;2023-01-28T02:48:21;100831.03;;;6.70
15144;BMP180;7672;50.834;6.286;2023-01-28T02:51:01;100830.97;;;6.68
15144;BMP180;7672;50.834;6.286;2023-01-28T02:53:44;100836.81;;;6.67
15144;BMP180;7672;50.834;6.286;2023-01-28T02:56:42;100835.94;;;6.67
15144;BMP180;7672;50.834;6.286;2023-01-28T02:59:28;100835.84;;;6.64
15144;BMP180;7672;50.834;6.286;2023-01-28T03:02:35;100840.88;;;6.64
15144;BMP180;7672;50.834;6.286;2023-01-28T03:05:23;100841.63;;;6.61
15144;BMP180;7672;50.834;6.286;2023-01-28T03:07:51;100848.41;;;6.64
15144;BMP180;7672;50.834;6.286;2023-01-28T03:10:22;100851.75;;;6.64
15144;BMP180;7672;50.834;6.286;2023-01-28T03:12:56;100845.75;;;6.61
15144;BMP180;7672;50.834;6.286;2023-01-28T03:15:47;100850.78;;;6.61
15144;BMP180;7672;50.834;6.286;2023-01-28T03:18:48;100851.53;;;6.58
15144;BMP180;7672;50.834;6.286;2023-01-28T03:21:41;100858.16;;;6.56
15144;BMP180;7672;50.834;6.286;2023-01-28T03:24:34;100862.31;;;6.56
15144;BMP180;7672;50.834;6.286;2023-01-28T03:27:55;100850.53;;;6.53
15144;BMP180;7672;50.834;6.286;2023-01-28T03:30:54;100862.91;;;6.49
15144;BMP180;7672;50.834;6.286;2023-01-28T03:33:43;100856.88;;;6.45
15144;BMP180;7672;50.834;6.286;2023-01-28T03:36:29;100859.41;;;6.45
15144;BMP180;7672;50.834;6.286;2023-01-28T03:39:25;100860.19;;;6.44
15144;BMP180;7672;50.834;6.286;2023-01-28T03:42:02;100867.72;;;6.44
15144;BMP180;7672;50.834;6.286;2023-01-28T03:44:31;100856.84;;;6.44
15144;BMP180;7672;50.834;6.286;2023-01-28T03:47:22;100869.34;;;6.42
15144;BMP180;7672;50.834;6.286;2023-01-28T03:49:52;100869.41;;;6.44
15144;BMP180;7672;50.834;6.286;2023-01-28T03:52:29;100870.19;;;6.43
15144;BMP180;7672;50.834;6.286;2023-01-28T03:54:57;100867.66;;;6.43
15144;BMP180;7672;50.834;6.286;2023-01-28T03:57:26;100874.38;;;6.42
15144;BMP180;7672;50.834;6.286;2023-01-28T03:59:53;100875.22;;;6.43
15144;BMP180;7672;50.834;6.286;2023-01-28T04:02:22;100870.19;;;6.43
15144;BMP180;7672;50.834;6.286;2023-01-28T04:04:49;100876.09;;;6.43
15144;BMP180;7672;50.834;6.286;2023-01-28T04:07:16;100868.47;;;6.42
15144;BMP180;7672;50.834;6.286;2023-01-28T04:09:43;100877.66;;;6.41
15144;BMP180;7672;50.834;6.286;2023-01-28T04:12:10;100881.84;;;6.41
15144;BMP180;7672;50.834;6.286;2023-01-28T04:14:37;100873.38;;;6.39
15144;BMP180;7672;50.834;6.286;2023-01-28T04:17:06;100875.88;;;6.39
15144;BMP180;7672;50.834;6.286;2023-01-28T04:19:36;100879.13;;;6.36
15144;BMP180;7672;50.834;6.286;2023-01-28T04:22:09;100876.53;;;6.33
15144;BMP180;7672;50.834;6.286;2023-01-28T04:24:36;100881.50;;;6.32
15144;BMP180;7672;50.834;6.286;2023-01-28T04:27:03;100883.84;;;6.29
15144;BMP180;7672;50.834;6.286;2023-01-28T04:29:30;100891.38;;;6.29
15144;BMP180;7672;50.834;6.286;2023-01-28T04:31:57;100886.31;;;6.27
15144;BMP180;7672;50.834;6.286;2023-01-28T04:34:23;100890.44;;;6.25
15144;BMP180;7672;50.834;6.286;2023-01-28T04:36:50;100889.56;;;6.25
15144;BMP180;7672;50.834;6.286;2023-01-28T04:39:17;100892.00;;;6.23
15144;BMP180;7672;50.834;6.286;2023-01-28T04:41:44;100888.56;;;6.21
15144;BMP180;7672;50.834;6.286;2023-01-28T04:44:10;100891.91;;;6.20
15144;BMP180;7672;50.834;6.286;2023-01-28T04:46:39;100889.31;;;6.19
15144;BMP180;7672;50.834;6.286;2023-01-28T04:49:06;100899.34;;;6.19
15144;BMP180;7672;50.834;6.286;2023-01-28T04:51:32;100907.81;;;6.21
15144;BMP180;7672;50.834;6.286;2023-01-28T04:53:59;100911.00;;;6.17
15144;BMP180;7672;50.834;6.286;2023-01-28T04:56:26;100902.69;;;6.18
15144;BMP180;7672;50.834;6.286;2023-01-28T04:58:53;100911.00;;;6.17
15144;BMP180;7672;50.834;6.286;2023-01-28T05:01:20;100912.72;;;6.18
15144;BMP180;7672;50.834;6.286;2023-01-28T05:03:46;100899.28;;;6.17
15144;BMP180;7672;50.834;6.286;2023-01-28T05:06:13;100905.31;;;6.21
15144;BMP180;7672;50.834;6.286;2023-01-28T05:08:40;100907.81;;;6.21
15144;BMP180;7672;50.834;6.286;2023-01-28T05:11:07;100909.53;;;6.22
15144;BMP180;7672;50.834;6.286;2023-01-28T05:13:33;100903.63;;;6.21
15144;BMP180;7672;50.834;6.286;2023-01-28T05:16:00;100904.47;;;6.20
15144;BMP180;7672;50.834;6.286;2023-01-28T05:18:27;100902.75;;;6.19
15144;BMP180;7672;50.834;6.286;2023-01-28T05:20:54;100896.78;;;6.17
15144;BMP180;7672;50.834;6.286;2023-01-28T05:23:20;100895.84;;;6.14
15144;BMP180;7672;50.834;6.286;2023-01-28T05:25:47;100907.50;;;6.13
15144;BMP180;7672;50.834;6.286;2023-01-28T05:28:15;100910.81;;;6.13
15144;BMP180;7672;50.834;6.286;2023-01-28T05:30:42;100908.28;;;6.13
15144;BMP180;7672;50.834;6.286;2023-01-28T05:33:09;100904.16;;;6.13
15144;BMP180;7672;50.834;6.286;2023-01-28T05:35:35;100910.06;;;6.15
15144;BMP180;7672;50.834;6.286;2023-01-28T05:38:02;100906.78;;;6.16
15144;BMP180;7672;50.834;6.286;2023-01-28T05:40:29;100917.59;;;6.15
15144;BMP180;7672;50.834;6.286;2023-01-28T05:42:56;100907.56;;;6.15
15144;BMP180;7672;50.834;6.286;2023-01-28T05:45:23;100904.19;;;6.14
15144;BMP180;7672;50.834;6.286;2023-01-28T05:47:50;100903.38;;;6.14
15144;BMP180;7672;50.834;6.286;2023-01-28T05:50:17;100905.06;;;6.15
15144;BMP180;7672;50.834;6.286;2023-01-28T05:52:43;100914.31;;;6.16
15144;BMP180;7672;50.834;6.286;2023-01-28T05:55:10;100917.59;;;6.15
15144;BMP180;7672;50.834;6.286;2023-01-28T05:57:37;100909.22;;;6.14
15144;BMP180;7672;50.834;6.286;2023-01-28T06:00:05;100918.47;;;6.15
15144;BMP180;7672;50.834;6.286;2023-01-28T06:02:32;100925.94;;;6.14
15144;BMP180;7672;50.834;6.286;2023-01-28T06:04:59;100930.88;;;6.13
15144;BMP180;7672;50.834;6.286;2023-01-28T06:07:26;100927.47;;;6.11
15144;BMP180;7672;50.834;6.286;2023-01-28T06:09:53;100933.22;;;6.08
15144;BMP180;7672;50.834;6.286;2023-01-28T06:12:19;100928.06;;;6.05
15144;BMP180;7672;50.834;6.286;2023-01-28T06:14:46;100936.25;;;6.01
15144;BMP180;7672;50.834;6.286;2023-01-28T06:17:13;100931.91;;;5.97
15144;BMP180;7672;50.834;6.286;2023-01-28T06:19:40;100938.53;;;5.95
15144;BMP180;7672;50.834;6.286;2023-01-28T06:22:07;100942.69;;;5.95
15144;BMP180;7672;50.834;6.286;2023-01-28T06:24:34;100947.69;;;5.95
15144;BMP180;7672;50.834;6.286;2023-01-28T06:27:00;100951.94;;;5.96
15144;BMP180;7672;50.834;6.286;2023-01-28T06:29:27;100943.63;;;5.97
15144;BMP180;7672;50.834;6.286;2023-01-28T06:31:54;100941.94;;;5.97
15144;BMP180;7672;50.834;6.286;2023-01-28T06:34:21;100945.41;;;5.99
15144;BMP180;7672;50.834;6.286;2023-01-28T06:36:48;100940.38;;;5.99
15144;BMP180;7672;50.834;6.286;2023-01-28T06:39:16;100949.63;;;6.00
15144;BMP180;7672;50.834;6.286;2023-01-28T06:41:43;100934.56;;;6.00
15144;BMP180;7672;50.834;6.286;2023-01-28T06:44:09;100939.66;;;6.02
15144;BMP180;7672;50.834;6.286;2023-01-28T06:46:36;100944.66;;;6.02
15144;BMP180;7672;50.834;6.286;2023-01-28T06:49:03;100947.91;;;5.99
15144;BMP180;7672;50.834;6.286;2023-01-28T06:51:30;100946.97;;;5.97
15144;BMP180;7672;50.834;6.286;2023-01-28T06:53:57;100936.94;;;5.97
15144;BMP180;7672;50.834;6.286;2023-01-28T06:56:24;100945.41;;;5.99
15144;BMP180;7672;50.834;6.286;2023-01-28T06:58:51;100950.41;;;5.99
15144;BMP180;7672;50.834;6.286;2023-01-28T07:01:17;100951.19;;;5.98
15144;BMP180;7672;50.834;6.286;2023-01-28T07:03:44;100942.84;;;5.98
15144;BMP180;7672;50.834;6.286;2023-01-28T07:06:11;100956.28;;;6.00
15144;BMP180;7672;50.834;6.286;2023-01-28T07:08:38;100946.25;;;6.00
15144;BMP180;7672;50.834;6.286;2023-01-28T07:11:05;100952.94;;;5.99
15144;BMP180;7672;50.834;6.286;2023-01-28T07:13:32;100950.28;;;5.96
15144;BMP180;7672;50.834;6.286;2023-01-28T07:15:59;100943.56;;;5.95
15144;BMP180;7672;50.834;6.286;2023-01-28T07:18:26;100953.59;;;5.95
15144;BMP180;7672;50.834;6.286;2023-01-28T07:20:53;100951.88;;;5.94
15144;BMP180;7672;50.834;6.286;2023-01-28T07:23:20;100954.38;;;5.94
15144;BMP180;7672;50.834;6.286;2023-01-28T07:25:46;100938.44;;;5.94
15144;BMP180;7672;50.834;6.286;2023-01-28T07:28:13;100935.88;;;5.92
15144;BMP180;7672;50.834;6.286;2023-01-28T07:30:49;100938.34;;;5.91
15144;BMP180;7672;50.834;6.286;2023-01-28T07:33:19;100945.03;;;5.90
15144;BMP180;7672;50.834;6.286;2023-01-28T07:35:47;100952.41;;;5.87
15144;BMP180;7672;50.834;6.286;2023-01-28T07:38:15;100954.13;;;5.88
15144;BMP180;7672;50.834;6.286;2023-01-28T07:40:41;100953.22;;;5.86
15144;BMP180;7672;50.834;6.286;2023-01-28T07:43:08;100949.78;;;5.84
15144;BMP180;7672;50.834;6.286;2023-01-28T07:45:36;100955.63;;;5.85
15144;BMP180;7672;50.834;6.286;2023-01-28T07:48:06;100953.94;;;5.84
15144;BMP180;7672;50.834;6.286;2023-01-28T07:50:36;100953.13;;;5.85
15144;BMP180;7672;50.834;6.286;2023-01-28T07:53:09;100948.97;;;5.85
15144;BMP180;7672;50.834;6.286;2023-01-28T07:55:37;100946.41;;;5.84
15144;BMP180;7672;50.834;6.286;2023-01-28T07:58:08;100952.22;;;5.83
15144;BMP180;7672;50.834;6.286;2023-01-28T08:00:37;100969.78;;;5.83
15144;BMP180;7672;50.834;6.286;2023-01-28T08:03:11;100963.88;;;5.82
15144;BMP180;7672;50.834;6.286;2023-01-28T08:05:45;100968.84;;;5.81
15144;BMP180;7672;50.834;6.286;2023-01-28T08:08:13;100967.13;;;5.80
15144;BMP180;7672;50.834;6.286;2023-01-28T08:10:40;100970.56;;;5.82
15144;BMP180;7672;50.834;6.286;2023-01-28T08:13:09;100978.09;;;5.82
15144;BMP180;7672;50.834;6.286;2023-01-28T08:15:37;100979.75;;;5.81
15144;BMP180;7672;50.834;6.286;2023-01-28T08:18:06;100979.88;;;5.84
15144;BMP180;7672;50.834;6.286;2023-01-28T08:20:34;100983.34;;;5.86
15144;BMP180;7672;50.834;6.286;2023-01-28T08:23:06;100988.34;;;5.86
15144;BMP180;7672;50.834;6.286;2023-01-28T08:25:34;100995.06;;;5.87
15144;BMP180;7672;50.834;6.286;2023-01-28T08:28:02;100990.91;;;5.88
15144;BMP180;7672;50.834;6.286;2023-01-28T08:30:29;101006.03;;;5.89
15144;BMP180;7672;50.834;6.286;2023-01-28T08:32:57;100997.78;;;5.92
15144;BMP180;7672;50.834;6.286;2023-01-28T08:35:26;101009.53;;;5.93
15144;BMP180;7672;50.834;6.286;2023-01-28T08:37:54;101011.22;;;5.94
15144;BMP180;7672;50.834;6.286;2023-01-28T08:40:21;101005.38;;;5.93
15144;BMP180;7672;50.834;6.286;2023-01-28T08:42:52;100999.56;;;5.94
15144;BMP180;7672;50.834;6.286;2023-01-28T08:45:22;101005.47;;;5.96
15144;BMP180;7672;50.834;6.286;2023-01-28T08:48:05;101010.50;;;5.96
15144;BMP180;7672;50.834;6.286;2023-01-28T08:50:35;101008.00;;;5.96
15144;BMP180;7672;50.834;6.286;2023-01-28T08:53:06;101010.50;;;5.96
15144;BMP180;7672;50.834;6.286;2023-01-28T08:55:33;101011.50;;;6.00
15144;BMP180;7672;50.834;6.286;2023-01-28T08:58:06;101016.63;;;6.03
15144;BMP180;7672;50.834;6.286;2023-01-28T09:00:34;101016.78;;;6.06
15144;BMP180;7672;50.834;6.286;2023-01-28T09:03:01;101021.88;;;6.07
15144;BMP180;7672;50.834;6.286;2023-01-28T09:05:33;101025.38;;;6.11
15144;BMP180;7672;50.834;6.286;2023-01-28T09:08:02;101021.25;;;6.13
15144;BMP180;7672;50.834;6.286;2023-01-28T09:10:30;101028.13;;;6.16
15144;BMP180;7672;50.834;6.286;2023-01-28T09:12:57;101043.38;;;6.21
15144;BMP180;7672;50.834;6.286;2023-01-28T09:15:24;101050.19;;;6.23
15144;BMP180;7672;50.834;6.286;2023-01-28T09:17:57;101047.69;;;6.23
15144;BMP180;7672;50.834;6.286;2023-01-28T09:20:25;101058.56;;;6.24
15144;BMP180;7672;50.834;6.286;2023-01-28T09:22:52;101059.44;;;6.24
15144;BMP180;7672;50.834;6.286;2023-01-28T09:25:19;101059.38;;;6.23
15144;BMP180;7672;50.834;6.286;2023-01-28T09:27:46;101063.53;;;6.22
15144;BMP180;7672;50.834;6.286;2023-01-28T09:30:13;101060.97;;;6.21
15144;BMP180;7672;50.834;6.286;2023-01-28T09:32:40;101063.41;;;6.19
15144;BMP180;7672;50.834;6.286;2023-01-28T09:35:08;101058.34;;;6.18
15144;BMP180;7672;50.834;6.286;2023-01-28T09:37:35;101064.13;;;6.17
15144;BMP180;7672;50.834;6.286;2023-01-28T09:40:03;101068.28;;;6.16
15144;BMP180;7672;50.834;6.286;2023-01-28T09:45:49;101080.00;;;6.16
15144;BMP180;7672;50.834;6.286;2023-01-28T09:48:21;101082.56;;;6.17
15144;BMP180;7672;50.834;6.286;2023-01-28T09:50:53;101075.19;;;6.20
15144;BMP180;7672;50.834;6.286;2023-01-28T09:53:30;101069.28;;;6.20
15144;BMP180;7672;50.834;6.286;2023-01-28T09:56:02;101075.31;;;6.23
15144;BMP180;7672;50.834;6.286;2023-01-28T09:58:30;101067.88;;;6.26
15144;BMP180;7672;50.834;6.286;2023-01-28T10:01:35;101081.38;;;6.28
15144;BMP180;7672;50.834;6.286;2023-01-28T10:04:37;101076.28;;;6.27
15144;BMP180;7672;50.834;6.286;2023-01-28T10:07:41;101085.63;;;6.29
15144;BMP180;7672;50.834;6.286;2023-01-28T10:10:19;101081.44;;;6.30
15144;BMP180;7672;50.834;6.286;2023-01-28T10:16:02;101087.50;;;6.35
15144;BMP180;7672;50.834;6.286;2023-01-28T10:18:49;101089.97;;;6.33
15144;BMP180;7672;50.834;6.286;2023-01-28T10:21:32;101090.16;;;6.38
15144;BMP180;7672;50.834;6.286;2023-01-28T10:24:33;101088.75;;;6.44
15144;BMP180;7672;50.834;6.286;2023-01-28T10:27:10;101086.38;;;6.47
15144;BMP180;7672;50.834;6.286;2023-01-28T10:29:38;101090.78;;;6.53
15144;BMP180;7672;50.834;6.286;2023-01-28T10:32:33;101103.66;;;6.60
15144;BMP180;7672;50.834;6.286;2023-01-28T10:35:00;101086.19;;;6.63
15144;BMP180;7672;50.834;6.286;2023-01-28T10:37:33;101077.09;;;6.65
15144;BMP180;7672;50.834;6.286;2023-01-28T10:40:02;101089.91;;;6.71
15144;BMP180;7672;50.834;6.286;2023-01-28T10:42:35;101085.19;;;6.78
15144;BMP180;7672;50.834;6.286;2023-01-28T10:45:22;101084.63;;;6.85
15144;BMP180;7672;50.834;6.286;2023-01-28T10:48:00;101093.16;;;6.89
15144;BMP180;7672;50.834;6.286;2023-01-28T10:50:30;101080.75;;;6.93
15144;BMP180;7672;50.834;6.286;2023-01-28T10:53:03;101074.22;;;6.97
15144;BMP180;7672;50.834;6.286;2023-01-28T10:55:54;101083.47;;;6.98
15144;BMP180;7672;50.834;6.286;2023-01-28T10:58:27;101081.81;;;6.98
15144;BMP180;7672;50.834;6.286;2023-01-28T11:01:00;101076.09;;;7.02
15144;BMP180;7672;50.834;6.286;2023-01-28T11:03:28;101079.53;;;7.04
15144;BMP180;7672;50.834;6.286;2023-01-28T11:06:02;101083.78;;;7.05
15144;BMP180;7672;50.834;6.286;2023-01-28T11:08:30;101091.44;;;7.08
15144;BMP180;7672;50.834;6.286;2023-01-28T11:10:57;101093.94;;;7.08
15144;BMP180;7672;50.834;6.286;2023-01-28T11:13:29;101079.66;;;7.07
15144;BMP180;7672;50.834;6.286;2023-01-28T11:16:12;101082.91;;;7.05
15144;BMP180;7672;50.834;6.286;2023-01-28T11:19:01;101085.38;;;7.03
15144;BMP180;7672;50.834;6.286;2023-01-28T11:21:31;101081.94;;;7.01
15144;BMP180;7672;50.834;6.286;2023-01-28T11:24:22;101090.38;;;7.03
15144;BMP180;7672;50.834;6.286;2023-01-28T11:26:54;101085.31;;;7.02
15144;BMP180;7672;50.834;6.286;2023-01-28T11:29:27;101081.94;;;7.01
15144;BMP180;7672;50.834;6.286;2023-01-28T11:31:58;101080.91;;;6.96
15144;BMP180;7672;50.834;6.286;2023-01-28T11:34:34;101086.72;;;6.95
15144;BMP180;7672;50.834;6.286;2023-01-28T11:37:13;101089.25;;;6.95
15144;BMP180;7672;50.834;6.286;2023-01-28T11:39:43;101078.38;;;6.96
15144;BMP180;7672;50.834;6.286;2023-01-28T11:42:18;101081.81;;;6.98
15144;BMP180;7672;50.834;6.286;2023-01-28T11:44:47;101084.31;;;6.98
15144;BMP180;7672;50.834;6.286;2023-01-28T11:47:39;101081.75;;;6.97
15144;BMP180;7672;50.834;6.286;2023-01-28T11:50:32;101095.06;;;6.94
15144;BMP180;7672;50.834;6.286;2023-01-28T11:57:00;101078.25;;;6.93
15144;BMP180;7672;50.834;6.286;2023-01-28T12:04:51;101083.78;;;6.85
15144;BMP180;7672;50.834;6.286;2023-01-28T12:07:42;101076.31;;;6.86
15144;BMP180;7672;50.834;6.286;2023-01-28T12:21:47;101057.91;;;7.08
15144;BMP180;7672;50.834;6.286;2023-01-28T12:27:50;101054.69;;;7.12
15144;BMP180;7672;50.834;6.286;2023-01-28T12:30:48;101059.78;;;7.13
15144;BMP180;7672;50.834;6.286;2023-01-28T12:40:32;101057.03;;;7.07
15144;BMP180;7672;50.834;6.286;2023-01-28T12:42:56;101061.09;;;7.04
15144;BMP180;7672;50.834;6.286;2023-01-28T12:45:36;101057.59;;;7.00
15144;BMP180;7672;50.834;6.286;2023-01-28T12:48:17;101056.72;;;7.00
15144;BMP180;7672;50.834;6.286;2023-01-28T12:51:22;101049.31;;;7.03
15144;BMP180;7672;50.834;6.286;2023-01-28T12:54:10;101043.50;;;7.04
15144;BMP180;7672;50.834;6.286;2023-01-28T12:56:49;101038.53;;;7.05
15144;BMP180;7672;50.834;6.286;2023-01-28T12:59:45;101029.56;;;7.12
15144;BMP180;7672;50.834;6.286;2023-01-28T13:02:36;101028.81;;;7.14
15144;BMP180;7672;50.834;6.286;2023-01-28T13:05:16;101021.38;;;7.17
15144;BMP180;7672;50.834;6.286;2023-01-28T13:08:05;101011.47;;;7.20
15144;BMP180;7672;50.834;6.286;2023-01-28T13:10:42;101001.56;;;7.25
15144;BMP180;7672;50.834;6.286;2023-01-28T13:13:41;100990.00;;;7.30
15144;BMP180;7672;50.834;6.286;2023-01-28T13:16:10;100988.34;;;7.30
15144;BMP180;7672;50.834;6.286;2023-01-28T13:24:19;100986.13;;;7.37
15144;BMP180;7672;50.834;6.286;2023-01-28T13:26:54;100966.00;;;7.37
15144;BMP180;7672;50.834;6.286;2023-01-28T13:29:31;100974.41;;;7.38
15144;BMP180;7672;50.834;6.286;2023-01-28T13:32:26;100959.47;;;7.42
15144;BMP180;7672;50.834;6.286;2023-01-28T13:35:05;100947.06;;;7.47
15144;BMP180;7672;50.834;6.286;2023-01-28T13:37:38;100944.75;;;7.53
15144;BMP180;7672;50.834;6.286;2023-01-28T13:40:21;100941.47;;;7.55
15144;BMP180;7672;50.834;6.286;2023-01-28T13:43:26;100956.53;;;7.54
15144;BMP180;7672;50.834;6.286;2023-01-28T13:46:03;100966.41;;;7.48
15144;BMP180;7672;50.834;6.286;2023-01-28T13:48:40;100966.28;;;7.45
15144;BMP180;7672;50.834;6.286;2023-01-28T13:51:32;100982.28;;;7.47
15144;BMP180;7672;50.834;6.286;2023-01-28T13:54:27;100980.53;;;7.44
15144;BMP180;7672;50.834;6.286;2023-01-28T13:57:15;100977.03;;;7.41
15144;BMP180;7672;50.834;6.286;2023-01-28T14:15:36;101005.13;;;7.53
15144;BMP180;7672;50.834;6.286;2023-01-28T14:18:24;101020.13;;;7.50
15144;BMP180;7672;50.834;6.286;2023-01-28T14:20:53;101017.50;;;7.47
15144;BMP180;7672;50.834;6.286;2023-01-28T14:23:23;101015.84;;;7.47
15144;BMP180;7672;50.834;6.286;2023-01-28T14:31:30;101020.72;;;7.43
15144;BMP180;7672;50.834;6.286;2023-01-28T14:34:28;101015.56;;;7.40
15144;BMP180;7672;50.834;6.286;2023-01-28T14:37:05;101012.94;;;7.37
15144;BMP180;7672;50.834;6.286;2023-01-28T14:39:42;101015.44;;;7.37
15144;BMP180;7672;50.834;6.286;2023-01-28T14:42:21;101020.53;;;7.38
15144;BMP180;7672;50.834;6.286;2023-01-28T14:48:15;101006.09;;;7.33
15144;BMP180;7672;50.834;6.286;2023-01-28T14:51:21;101006.09;;;7.33
15144;BMP180;7672;50.834;6.286;2023-01-28T14:59:35;100984.13;;;7.29
15144;BMP180;7672;50.834;6.286;2023-01-28T15:02:21;100988.13;;;7.24
15144;BMP180;7672;50.834;6.286;2023-01-28T15:04:50;100980.41;;;7.20
15144;BMP180;7672;50.834;6.286;2023-01-28T15:07:26;100994.50;;;7.16
15144;BMP180;7672;50.834;6.286;2023-01-28T15:12:53;100996.81;;;7.10
15144;BMP180;7672;50.834;6.286;2023-01-28T15:15:34;100994.22;;;7.09
15144;BMP180;7672;50.834;6.286;2023-01-28T15:18:20;100997.50;;;7.06
15144;BMP180;7672;50.834;6.286;2023-01-28T15:20:53;100981.44;;;7.03
15144;BMP180;7672;50.834;6.286;2023-01-28T15:23:34;100980.50;;;7.01
15144;BMP180;7672;50.834;6.286;2023-01-28T15:26:17;100984.56;;;6.97
15144;BMP180;7672;50.834;6.286;2023-01-28T15:28:46;100974.41;;;6.94
15144;BMP180;7672;50.834;6.286;2023-01-28T15:31:22;100985.13;;;6.90
15144;BMP180;7672;50.834;6.286;2023-01-28T15:34:14;100984.16;;;6.87
15144;BMP180;7672;50.834;6.286;2023-01-28T15:36:42;100971.44;;;6.82
15144;BMP180;7672;50.834;6.286;2023-01-28T15:39:21;100976.31;;;6.79
15144;BMP180;7672;50.834;6.286;2023-01-28T15:47:04;100992.44;;;6.64
15144;BMP180;7672;50.834;6.286;2023-01-28T15:49:44;100996.28;;;6.55
15144;BMP180;7672;50.834;6.286;2023-01-28T15:52:12;101003.56;;;6.49
15144;BMP180;7672;50.834;6.286;2023-01-28T15:54:47;101000.78;;;6.43
15144;BMP180;7672;50.834;6.286;2023-01-28T15:57:24;100998.09;;;6.38
15144;BMP180;7672;50.834;6.286;2023-01-28T16:00:10;100990.25;;;6.31
15144;BMP180;7672;50.834;6.286;2023-01-28T16:02:54;100995.16;;;6.28
15144;BMP180;7672;50.834;6.286;2023-01-28T16:05:31;100997.34;;;6.20
15144;BMP180;7672;50.834;6.286;2023-01-28T16:08:27;101002.94;;;6.15
15144;BMP180;7672;50.834;6.286;2023-01-28T16:10:56;100996.88;;;6.10
15144;BMP180;7672;50.834;6.286;2023-01-28T16:13:27;101010.88;;;6.05
15144;BMP180;7672;50.834;6.286;2023-01-28T16:15:58;101018.28;;;6.02
15144;BMP180;7672;50.834;6.286;2023-01-28T16:18:38;101019.75;;;5.97
15144;BMP180;7672;50.834;6.286;2023-01-28T16:21:08;101020.41;;;5.93
15144;BMP180;7672;50.834;6.286;2023-01-28T16:23:38;101023.66;;;5.91
15144;BMP180;7672;50.834;6.286;2023-01-28T16:26:22;101036.09;;;5.88
15144;BMP180;7672;50.834;6.286;2023-01-28T16:28:49;101035.09;;;5.84